Weer

Current Metar

EHAM: EHAM 272155Z 07004KT CAVOK 07/02 Q1021 NOSIG
EHRD: EHRD 272155Z AUTO 04002KT 9999 NCD 07/03 Q1021 NOSIG
EHGG: EHGG 272155Z AUTO 07005KT 6000 NCD 06/06 Q1022
EHEH: EHEH 272155Z AUTO VRB01KT 9999 FEW150 05/00 Q1020 BLU
EHBK: EHBK 272155Z AUTO 16005KT 9999 NCD 11/00 Q1021

Search METAR


Wind Charts

+ 0600h
FL100 FL180 FL240 FL300 FL340

+ 1200h
FL100 FL180 FL240 FL300 FL340

+ 1800h
FL100 FL180 FL240 FL300 FL340

+ 2400h
FL100 FL180 FL240 FL300 FL340

Europe & Africa charts only, updated daily.

 

Weather Services

MET Office